Terminal Aerodrome Forecast
Issued by NWS

Home | Current Version | Previous Version | Graphics & Text | Print | Product List | Glossary On
Versions: 1 2 3 4 5 6 7 8 9 10 11 12 13
000
FTUS43 KBIS 032300
TAFJMS
TAF
KJMS 032327Z 0400/0424 30024G31KT P6SM BKN025
     FM040100 31016KT P6SM SCT035
     FM040800 31015KT P6SM BKN025
     FM041500 31016G26KT P6SM SCT035=

USA.gov is the U.S. government's official web portal to all federal, state and local government web resources and services.